createdAt,value
2019-05-22T00:00:12.395Z,0.00
2019-05-22T00:01:12.297Z,0.00
2019-05-22T00:02:12.201Z,0.00
2019-05-22T00:03:12.100Z,0.00
2019-05-22T00:04:12.057Z,0.00
2019-05-22T00:05:11.914Z,0.00
2019-05-22T00:06:11.808Z,0.00
2019-05-22T00:07:11.709Z,0.00
2019-05-22T00:08:11.611Z,0.00
2019-05-22T00:09:11.522Z,0.00
2019-05-22T00:10:11.425Z,0.00
2019-05-22T00:11:11.318Z,0.00
2019-05-22T00:12:11.219Z,0.00
2019-05-22T00:13:11.123Z,0.00
2019-05-22T00:14:11.030Z,0.00
2019-05-22T00:15:10.925Z,0.00
2019-05-22T00:16:10.830Z,0.00
2019-05-22T00:17:10.733Z,0.00
2019-05-22T00:18:10.634Z,0.00
2019-05-22T00:19:10.537Z,0.00
2019-05-22T00:20:10.450Z,0.00
2019-05-22T00:21:10.341Z,0.00
2019-05-22T00:22:10.247Z,0.00
2019-05-22T00:23:10.157Z,0.00
2019-05-22T00:24:10.047Z,0.00
2019-05-22T00:25:09.977Z,0.00
2019-05-22T00:26:09.850Z,0.00
2019-05-22T00:27:09.752Z,0.00
2019-05-22T00:28:09.657Z,0.00
2019-05-22T00:29:09.557Z,0.00
2019-05-22T00:30:09.471Z,0.00
2019-05-22T00:31:09.359Z,0.00
2019-05-22T00:32:09.262Z,0.00
2019-05-22T00:33:09.163Z,0.00
2019-05-22T00:34:09.066Z,0.00
2019-05-22T00:35:08.966Z,0.00
2019-05-22T00:36:08.869Z,0.00
2019-05-22T00:37:08.771Z,0.00
2019-05-22T00:38:08.687Z,0.00
2019-05-22T00:39:08.607Z,0.00
2019-05-22T00:40:08.480Z,0.00
2019-05-22T00:41:08.380Z,0.00
2019-05-22T00:42:08.283Z,0.00
2019-05-22T00:43:13.783Z,0.00
2019-05-22T00:44:08.084Z,0.00
2019-05-22T00:45:08.012Z,0.00
2019-05-22T00:46:07.958Z,0.00
2019-05-22T00:47:07.790Z,0.00
2019-05-22T00:48:07.697Z,0.00
2019-05-22T00:49:07.598Z,0.00
2019-05-22T00:50:07.500Z,0.00
2019-05-22T00:51:07.398Z,0.00
2019-05-22T00:52:07.298Z,0.00
2019-05-22T00:53:07.203Z,0.00
2019-05-22T00:54:07.108Z,0.00
2019-05-22T00:55:07.011Z,0.00
2019-05-22T00:56:06.911Z,0.00
2019-05-22T00:57:06.808Z,0.00
2019-05-22T00:58:06.713Z,0.00
2019-05-22T00:59:06.615Z,0.00
2019-05-22T01:00:06.516Z,0.00
2019-05-22T01:01:06.417Z,0.00
2019-05-22T01:02:06.354Z,0.00
2019-05-22T01:03:06.223Z,0.00
2019-05-22T01:04:06.143Z,0.00
2019-05-22T01:05:06.026Z,0.00
2019-05-22T01:06:05.999Z,0.00
2019-05-22T01:07:05.837Z,0.00
2019-05-22T01:08:05.733Z,0.00
2019-05-22T01:09:05.635Z,0.00
2019-05-22T01:10:05.601Z,0.00
2019-05-22T01:11:05.439Z,0.00
2019-05-22T01:12:05.342Z,0.00
2019-05-22T01:13:05.243Z,0.00
2019-05-22T01:14:05.143Z,0.00
2019-05-22T01:15:05.097Z,0.00
2019-05-22T01:16:04.950Z,0.00
2019-05-22T01:17:04.850Z,0.00
2019-05-22T01:18:04.751Z,0.00
2019-05-22T01:19:04.655Z,0.00
2019-05-22T01:20:04.555Z,0.00
2019-05-22T01:21:04.456Z,0.00
2019-05-22T01:22:04.357Z,0.00
2019-05-22T01:23:04.258Z,0.00
2019-05-22T01:24:04.162Z,0.00
2019-05-22T01:25:04.064Z,0.00
2019-05-22T01:26:03.975Z,0.00
2019-05-22T01:27:03.957Z,0.00
2019-05-22T01:28:03.772Z,0.00
2019-05-22T01:29:03.669Z,0.00
2019-05-22T01:30:03.630Z,0.00
2019-05-22T01:31:03.495Z,0.00
2019-05-22T01:32:03.375Z,0.00
2019-05-22T01:33:03.329Z,0.00
2019-05-22T01:34:03.180Z,0.00
2019-05-22T01:35:03.084Z,0.00
2019-05-22T01:36:02.985Z,0.00
2019-05-22T01:37:02.885Z,0.00
2019-05-22T01:38:02.787Z,0.00
2019-05-22T01:39:02.936Z,0.00
2019-05-22T01:40:02.591Z,0.00
2019-05-22T01:41:02.504Z,0.00
2019-05-22T01:42:02.393Z,0.00
2019-05-22T01:43:02.305Z,0.00
2019-05-22T01:44:02.197Z,0.00
2019-05-22T01:45:06.545Z,0.00
2019-05-22T01:46:02.002Z,0.00
2019-05-22T01:47:01.947Z,0.00
2019-05-22T01:48:01.869Z,0.00
2019-05-22T01:49:01.708Z,0.00
2019-05-22T01:50:01.619Z,0.00
2019-05-22T01:51:01.571Z,0.00
2019-05-22T01:52:01.412Z,0.00
2019-05-22T01:53:01.313Z,0.00
2019-05-22T01:54:01.223Z,0.00
2019-05-22T01:55:01.118Z,0.00
2019-05-22T01:56:01.019Z,0.00
2019-05-22T01:57:00.921Z,0.00
2019-05-22T01:58:00.823Z,0.00
2019-05-22T01:59:00.738Z,0.00
2019-05-22T02:00:00.640Z,0.00
2019-05-22T02:01:00.532Z,0.00
2019-05-22T02:02:00.433Z,0.00
2019-05-22T02:03:00.596Z,0.00
2019-05-22T02:04:00.237Z,0.00
2019-05-22T02:05:00.134Z,0.00
2019-05-22T02:06:00.036Z,0.00
2019-05-22T02:06:59.941Z,0.00
2019-05-22T02:07:59.908Z,0.00
2019-05-22T02:08:59.742Z,0.00
2019-05-22T02:09:59.643Z,0.00
2019-05-22T02:10:59.549Z,0.00
2019-05-22T02:11:59.446Z,0.00
2019-05-22T02:12:59.350Z,0.00
2019-05-22T02:13:59.254Z,0.00
2019-05-22T02:14:59.159Z,0.00
2019-05-22T02:15:59.056Z,0.00
2019-05-22T02:16:58.954Z,0.00
2019-05-22T02:17:58.858Z,0.00
2019-05-22T02:18:58.759Z,0.00
2019-05-22T02:19:58.660Z,0.00
2019-05-22T02:20:58.559Z,0.00
2019-05-22T02:21:58.465Z,0.00
2019-05-22T02:22:58.364Z,0.00
2019-05-22T02:23:58.266Z,0.00
2019-05-22T02:24:58.170Z,0.00
2019-05-22T02:25:58.070Z,0.00
2019-05-22T02:26:57.970Z,0.00
2019-05-22T02:27:57.893Z,0.00
2019-05-22T02:28:57.843Z,0.00
2019-05-22T02:29:57.676Z,0.00
2019-05-22T02:30:57.577Z,0.00
2019-05-22T02:31:57.476Z,0.00
2019-05-22T02:32:57.383Z,4.00
2019-05-22T02:33:57.285Z,4.00
2019-05-22T02:34:57.192Z,0.00
2019-05-22T02:35:57.099Z,0.00
2019-05-22T02:36:56.988Z,4.00
2019-05-22T02:37:56.895Z,4.00
2019-05-22T02:38:56.792Z,4.00
2019-05-22T02:39:56.688Z,4.00
2019-05-22T02:40:56.595Z,4.00
2019-05-22T02:41:56.511Z,8.00
2019-05-22T02:42:56.398Z,8.00
2019-05-22T02:43:56.296Z,4.00
2019-05-22T02:44:56.198Z,4.00
2019-05-22T02:45:56.098Z,8.00
2019-05-22T02:46:56.003Z,8.00
2019-05-22T02:47:55.905Z,8.00
2019-05-22T02:48:55.859Z,8.00
2019-05-22T02:49:55.717Z,8.00
2019-05-22T02:50:55.610Z,8.00
2019-05-22T02:51:55.508Z,12.00
2019-05-22T02:52:55.410Z,8.00
2019-05-22T02:53:55.313Z,12.00
2019-05-22T02:54:55.215Z,12.00
2019-05-22T02:55:55.117Z,12.00
2019-05-22T02:56:55.016Z,12.00
2019-05-22T02:57:54.922Z,16.00
2019-05-22T02:58:54.819Z,16.00
2019-05-22T02:59:54.722Z,20.00
2019-05-22T03:00:54.623Z,20.00
2019-05-22T03:01:54.535Z,16.00
2019-05-22T03:02:54.427Z,20.00
2019-05-22T03:03:54.332Z,24.00
2019-05-22T03:04:54.229Z,24.00
2019-05-22T03:05:54.130Z,24.00
2019-05-22T03:06:54.032Z,28.00
2019-05-22T03:07:53.939Z,32.00
2019-05-22T03:08:53.841Z,52.00
2019-05-22T03:09:53.767Z,44.00
2019-05-22T03:10:53.650Z,52.00
2019-05-22T03:11:53.540Z,48.00
2019-05-22T03:12:53.440Z,48.00
2019-05-22T03:13:53.345Z,48.00
2019-05-22T03:14:53.249Z,52.00
2019-05-22T03:15:53.152Z,52.00
2019-05-22T03:16:53.049Z,56.00
2019-05-22T03:17:52.948Z,52.00
2019-05-22T03:19:07.822Z,48.00
2019-05-22T03:19:52.753Z,48.00
2019-05-22T03:20:52.651Z,52.00
2019-05-22T03:21:52.554Z,52.00
2019-05-22T03:22:52.453Z,56.00
2019-05-22T03:23:52.361Z,56.00
2019-05-22T03:24:52.261Z,76.00
2019-05-22T03:25:52.161Z,72.00
2019-05-22T03:26:52.060Z,76.00
2019-05-22T03:27:51.968Z,72.00
2019-05-22T03:28:51.865Z,88.00
2019-05-22T03:29:51.806Z,92.00
2019-05-22T03:30:51.741Z,104.00
2019-05-22T03:31:51.575Z,120.00
2019-05-22T03:32:51.470Z,128.00
2019-05-22T03:33:51.371Z,124.00
2019-05-22T03:34:51.279Z,116.00
2019-05-22T03:35:51.618Z,112.00
2019-05-22T03:36:51.077Z,128.00
2019-05-22T03:37:50.976Z,136.00
2019-05-22T03:38:50.878Z,136.00
2019-05-22T03:39:50.778Z,152.00
2019-05-22T03:40:50.682Z,184.00
2019-05-22T03:41:50.581Z,216.00
2019-05-22T03:42:50.481Z,192.00
2019-05-22T03:43:50.382Z,216.00
2019-05-22T03:44:50.283Z,180.00
2019-05-22T03:45:50.186Z,192.00
2019-05-22T03:46:50.087Z,188.00
2019-05-22T03:47:49.991Z,216.00
2019-05-22T03:48:49.889Z,236.00
2019-05-22T03:49:49.792Z,248.00
2019-05-22T03:50:49.719Z,336.00
2019-05-22T03:51:49.589Z,288.00
2019-05-22T03:52:49.496Z,364.00
2019-05-22T03:53:49.394Z,352.00
2019-05-22T03:54:49.295Z,340.00
2019-05-22T03:55:49.244Z,352.00
2019-05-22T03:56:49.097Z,380.00
2019-05-22T03:57:48.997Z,432.00
2019-05-22T03:58:48.898Z,404.00
2019-05-22T03:59:48.799Z,448.00
2019-05-22T04:00:48.701Z,396.00
2019-05-22T04:01:48.601Z,404.00
2019-05-22T04:02:48.500Z,444.00
2019-05-22T04:03:48.407Z,464.00
2019-05-22T04:04:48.310Z,496.00
2019-05-22T04:05:48.205Z,508.00
2019-05-22T04:06:48.116Z,508.00
2019-05-22T04:07:48.022Z,620.00
2019-05-22T04:08:47.911Z,548.00
2019-05-22T04:09:47.808Z,548.00
2019-05-22T04:10:47.756Z,552.00
2019-05-22T04:11:47.694Z,532.00
2019-05-22T04:12:47.509Z,504.00
2019-05-22T04:13:47.411Z,504.00
2019-05-22T04:14:47.309Z,564.00
2019-05-22T04:15:47.213Z,584.00
2019-05-22T04:16:47.113Z,520.00
2019-05-22T04:17:47.022Z,520.00
2019-05-22T04:18:46.923Z,560.00
2019-05-22T04:19:50.113Z,608.00
2019-05-22T04:20:46.716Z,532.00
2019-05-22T04:21:46.618Z,620.00
2019-05-22T04:22:46.518Z,808.00
2019-05-22T04:23:46.419Z,844.00
2019-05-22T04:24:46.321Z,608.00
2019-05-22T04:25:46.221Z,800.00
2019-05-22T04:26:46.119Z,672.00
2019-05-22T04:27:46.021Z,732.00
2019-05-22T04:28:45.922Z,732.00
2019-05-22T04:29:45.820Z,876.00
2019-05-22T04:30:45.745Z,824.00
2019-05-22T04:31:45.679Z,728.00
2019-05-22T04:32:45.523Z,844.00
2019-05-22T04:33:45.433Z,736.00
2019-05-22T04:34:45.325Z,756.00
2019-05-22T04:35:45.228Z,732.00
2019-05-22T04:36:45.126Z,712.00
2019-05-22T04:37:45.033Z,744.00
2019-05-22T04:38:44.928Z,748.00
2019-05-22T04:39:44.830Z,876.00
2019-05-22T04:40:44.728Z,756.00
2019-05-22T04:41:44.662Z,776.00
2019-05-22T04:42:44.530Z,740.00
2019-05-22T04:43:44.430Z,720.00
2019-05-22T04:44:44.330Z,744.00
2019-05-22T04:45:44.232Z,796.00
2019-05-22T04:46:44.141Z,808.00
2019-05-22T04:47:44.035Z,772.00
2019-05-22T04:48:46.098Z,772.00
2019-05-22T04:49:43.836Z,788.00
2019-05-22T04:50:43.735Z,788.00
2019-05-22T04:51:43.703Z,832.00
2019-05-22T04:52:43.537Z,832.00
2019-05-22T04:53:43.435Z,860.00
2019-05-22T04:54:43.336Z,952.00
2019-05-22T04:55:43.244Z,916.00
2019-05-22T04:56:43.137Z,1000.00
2019-05-22T04:57:43.040Z,1012.00
2019-05-22T04:58:42.938Z,940.00
2019-05-22T04:59:42.839Z,860.00
2019-05-22T05:00:42.747Z,1000.00
2019-05-22T05:01:42.640Z,964.00
2019-05-22T05:02:42.541Z,1100.00
2019-05-22T05:03:42.440Z,1176.00
2019-05-22T05:04:42.344Z,1188.00
2019-05-22T05:05:42.244Z,1476.00
2019-05-22T05:06:42.142Z,1320.00
2019-05-22T05:07:42.043Z,1428.00
2019-05-22T05:08:41.944Z,1512.00
2019-05-22T05:09:41.846Z,1492.00
2019-05-22T05:10:41.745Z,1556.00
2019-05-22T05:11:41.691Z,1744.00
2019-05-22T05:12:41.606Z,1452.00
2019-05-22T05:13:41.449Z,1560.00
2019-05-22T05:14:41.347Z,1568.00
2019-05-22T05:15:41.245Z,1484.00
2019-05-22T05:16:41.150Z,1736.00
2019-05-22T05:17:41.050Z,1436.00
2019-05-22T05:18:40.945Z,1724.00
2019-05-22T05:19:40.854Z,1616.00
2019-05-22T05:20:40.750Z,1576.00
2019-05-22T05:21:40.651Z,1480.00
2019-05-22T05:22:40.551Z,1804.00
2019-05-22T05:23:40.451Z,1568.00
2019-05-22T05:24:40.350Z,1500.00
2019-05-22T05:25:40.250Z,1452.00
2019-05-22T05:26:40.150Z,1828.00
2019-05-22T05:27:40.052Z,2100.00
2019-05-22T05:28:39.953Z,2008.00
2019-05-22T05:29:39.854Z,2064.00
2019-05-22T05:30:39.750Z,2352.00
2019-05-22T05:31:39.663Z,1784.00
2019-05-22T05:32:39.607Z,1840.00
2019-05-22T05:33:39.456Z,1904.00
2019-05-22T05:34:39.353Z,2068.00
2019-05-22T05:35:39.252Z,2208.00
2019-05-22T05:36:39.151Z,2504.00
2019-05-22T05:37:39.053Z,3012.00
2019-05-22T05:38:38.958Z,2592.00
2019-05-22T05:39:38.856Z,2644.00
2019-05-22T05:40:38.780Z,2564.00
2019-05-22T05:41:38.655Z,2312.00
2019-05-22T05:42:38.556Z,2632.00
2019-05-22T05:43:38.453Z,2292.00
2019-05-22T05:44:38.355Z,2536.00
2019-05-22T05:45:38.257Z,2408.00
2019-05-22T05:46:38.159Z,2108.00
2019-05-22T05:47:38.059Z,1944.00
2019-05-22T05:48:38.007Z,3200.00
2019-05-22T05:49:37.860Z,1992.00
2019-05-22T05:50:39.893Z,1956.00
2019-05-22T05:51:37.660Z,1732.00
2019-05-22T05:52:37.635Z,1640.00
2019-05-22T05:53:37.459Z,1720.00
2019-05-22T05:54:37.359Z,2004.00
2019-05-22T05:55:37.260Z,1864.00
2019-05-22T05:56:37.508Z,2188.00
2019-05-22T05:57:37.061Z,2244.00
2019-05-22T05:58:36.962Z,2252.00
2019-05-22T05:59:36.861Z,2144.00
2019-05-22T06:00:36.762Z,2704.00
2019-05-22T06:01:36.662Z,2900.00
2019-05-22T06:02:36.559Z,3012.00
2019-05-22T06:03:36.463Z,3204.00
2019-05-22T06:04:36.365Z,3172.00
2019-05-22T06:05:36.263Z,3948.00
2019-05-22T06:06:36.163Z,4312.00
2019-05-22T06:07:36.060Z,4876.00
2019-05-22T06:08:35.961Z,5200.00
2019-05-22T06:09:35.860Z,4164.00
2019-05-22T06:10:35.763Z,4732.00
2019-05-22T06:11:35.671Z,4716.00
2019-05-22T06:12:35.617Z,5088.00
2019-05-22T06:13:35.544Z,5128.00
2019-05-22T06:14:35.361Z,4528.00
2019-05-22T06:15:46.460Z,4272.00
2019-05-22T06:16:35.164Z,4056.00
2019-05-22T06:17:35.062Z,4312.00
2019-05-22T06:18:34.989Z,4032.00
2019-05-22T06:19:34.864Z,5156.00
2019-05-22T06:20:34.767Z,4320.00
2019-05-22T06:21:34.671Z,4604.00
2019-05-22T06:22:34.565Z,4772.00
2019-05-22T06:23:34.463Z,5176.00
2019-05-22T06:24:34.364Z,4944.00
2019-05-22T06:25:34.264Z,5936.00
2019-05-22T06:26:34.167Z,6184.00
2019-05-22T06:27:34.066Z,4872.00
2019-05-22T06:28:33.966Z,4488.00
2019-05-22T06:29:33.870Z,4768.00
2019-05-22T06:30:33.765Z,4312.00
2019-05-22T06:31:33.675Z,4916.00
2019-05-22T06:32:33.598Z,4840.00
2019-05-22T06:33:33.528Z,4820.00
2019-05-22T06:34:33.365Z,4712.00
2019-05-22T06:35:33.301Z,4288.00
2019-05-22T06:36:33.166Z,4084.00
2019-05-22T06:37:33.072Z,4404.00
2019-05-22T06:38:32.967Z,4408.00
2019-05-22T06:39:32.865Z,3876.00
2019-05-22T06:40:32.768Z,4336.00
2019-05-22T06:41:32.668Z,3920.00
2019-05-22T06:42:32.568Z,4296.00
2019-05-22T06:43:32.468Z,3704.00
2019-05-22T06:44:32.372Z,4164.00
2019-05-22T06:45:35.200Z,4108.00
2019-05-22T06:46:32.171Z,3600.00
2019-05-22T06:47:32.070Z,3860.00
2019-05-22T06:48:31.970Z,3216.00
2019-05-22T06:49:31.870Z,3180.00
2019-05-22T06:50:31.770Z,3276.00
2019-05-22T06:51:31.672Z,3504.00
2019-05-22T06:52:31.585Z,3096.00
2019-05-22T06:53:31.486Z,3148.00
2019-05-22T06:54:31.376Z,3508.00
2019-05-22T06:55:31.276Z,3552.00
2019-05-22T06:56:31.172Z,2940.00
2019-05-22T06:57:31.074Z,3088.00
2019-05-22T06:58:30.973Z,2540.00
2019-05-22T06:59:30.873Z,2608.00
2019-05-22T07:00:30.772Z,3056.00
2019-05-22T07:01:30.678Z,3112.00
2019-05-22T07:02:30.571Z,3504.00
2019-05-22T07:03:30.473Z,3984.00
2019-05-22T07:04:30.376Z,3828.00
2019-05-22T07:05:30.276Z,3652.00
2019-05-22T07:06:30.173Z,3424.00
2019-05-22T07:07:30.073Z,3428.00
2019-05-22T07:08:29.972Z,3784.00
2019-05-22T07:09:29.874Z,3612.00
2019-05-22T07:10:29.771Z,5720.00
2019-05-22T07:11:29.677Z,5516.00
2019-05-22T07:12:29.573Z,5420.00
2019-05-22T07:13:29.542Z,4692.00
2019-05-22T07:14:29.373Z,4324.00
2019-05-22T07:15:29.273Z,3876.00
2019-05-22T07:16:29.175Z,3920.00
2019-05-22T07:17:29.089Z,3392.00
2019-05-22T07:18:28.983Z,3376.00
2019-05-22T07:19:28.872Z,3408.00
2019-05-22T07:20:28.781Z,3652.00
2019-05-22T07:21:34.031Z,3484.00
2019-05-22T07:22:28.573Z,3948.00
2019-05-22T07:23:28.474Z,3892.00
2019-05-22T07:24:28.371Z,3764.00
2019-05-22T07:25:28.272Z,3568.00
2019-05-22T07:26:28.171Z,3760.00
2019-05-22T07:27:28.070Z,3792.00
2019-05-22T07:28:27.969Z,3992.00
2019-05-22T07:29:27.872Z,3648.00
2019-05-22T07:30:27.772Z,3932.00
2019-05-22T07:31:27.673Z,5080.00
2019-05-22T07:32:30.755Z,5648.00
2019-05-22T07:33:27.520Z,5680.00
2019-05-22T07:34:27.430Z,5496.00
2019-05-22T07:35:45.738Z,8848.00
2019-05-22T07:36:27.174Z,8572.00
2019-05-22T07:37:27.072Z,7364.00
2019-05-22T07:38:26.971Z,6168.00
2019-05-22T07:39:26.877Z,4652.00
2019-05-22T07:40:26.780Z,5288.00
2019-05-22T07:41:26.683Z,5604.00
2019-05-22T07:42:26.571Z,6640.00
2019-05-22T07:43:26.479Z,6196.00
2019-05-22T07:44:26.374Z,6120.00
2019-05-22T07:45:26.276Z,6084.00
2019-05-22T07:46:26.170Z,7736.00
2019-05-22T07:47:26.237Z,7216.00
2019-05-22T07:48:25.970Z,7744.00
2019-05-22T07:49:25.881Z,7992.00
2019-05-22T07:50:25.773Z,6536.00
2019-05-22T07:51:25.674Z,7208.00
2019-05-22T07:52:25.572Z,7668.00
2019-05-22T07:53:25.500Z,7416.00
2019-05-22T07:54:25.426Z,7168.00
2019-05-22T07:55:25.275Z,8372.00
2019-05-22T07:56:25.173Z,8776.00
2019-05-22T07:57:25.074Z,8704.00
2019-05-22T07:58:24.969Z,8368.00
2019-05-22T07:59:24.883Z,9084.00
2019-05-22T08:00:24.774Z,9308.00
2019-05-22T08:01:24.674Z,8080.00
2019-05-22T08:02:24.574Z,8760.00
2019-05-22T08:03:24.473Z,8932.00
2019-05-22T08:04:24.375Z,7872.00
2019-05-22T08:05:24.275Z,7620.00
2019-05-22T08:06:24.176Z,7192.00
2019-05-22T08:07:24.077Z,6308.00
2019-05-22T08:08:23.980Z,5672.00
2019-05-22T08:09:23.875Z,6804.00
2019-05-22T08:10:23.777Z,6596.00
2019-05-22T08:11:23.675Z,5684.00
2019-05-22T08:12:23.576Z,5652.00
2019-05-22T08:13:23.479Z,5572.00
2019-05-22T08:14:23.464Z,6464.00
2019-05-22T08:15:23.294Z,5832.00
2019-05-22T08:16:23.179Z,5592.00
2019-05-22T08:17:23.077Z,7252.00
2019-05-22T08:18:22.987Z,6548.00
2019-05-22T08:19:22.878Z,6828.00
2019-05-22T08:20:22.780Z,6728.00
2019-05-22T08:21:23.645Z,6112.00
2019-05-22T08:22:22.576Z,5180.00
2019-05-22T08:23:22.534Z,6300.00
2019-05-22T08:24:22.380Z,5800.00
2019-05-22T08:25:22.279Z,5220.00
2019-05-22T08:26:22.180Z,5892.00
2019-05-22T08:27:22.081Z,7140.00
2019-05-22T08:28:21.986Z,7496.00
2019-05-22T08:29:21.890Z,5144.00
2019-05-22T08:30:21.783Z,5120.00
2019-05-22T08:31:21.682Z,5844.00
2019-05-22T08:32:21.583Z,5408.00
2019-05-22T08:33:21.482Z,5492.00
2019-05-22T08:34:21.438Z,5448.00
2019-05-22T08:35:21.294Z,5204.00
2019-05-22T08:36:21.185Z,5680.00
2019-05-22T08:37:21.085Z,5936.00
2019-05-22T08:38:20.983Z,6104.00
2019-05-22T08:39:20.883Z,6752.00
2019-05-22T08:40:20.797Z,6016.00
2019-05-22T08:41:20.691Z,5800.00
2019-05-22T08:42:20.588Z,6800.00
2019-05-22T08:43:20.485Z,6040.00
2019-05-22T08:44:20.394Z,6212.00
2019-05-22T08:45:20.286Z,6796.00
2019-05-22T08:46:20.187Z,6408.00
2019-05-22T08:47:20.097Z,6756.00
2019-05-22T08:48:20.004Z,7460.00
2019-05-22T08:49:19.890Z,7968.00
2019-05-22T08:50:19.787Z,8048.00
2019-05-22T08:51:19.689Z,7548.00
2019-05-22T08:52:23.507Z,8972.00
2019-05-22T08:53:19.486Z,7784.00
2019-05-22T08:54:19.429Z,8244.00
2019-05-22T08:55:19.365Z,7404.00
2019-05-22T08:56:19.189Z,7004.00
2019-05-22T08:57:19.088Z,8032.00
2019-05-22T08:58:18.987Z,7200.00
2019-05-22T08:59:20.092Z,8344.00
2019-05-22T09:00:18.790Z,7520.00
2019-05-22T09:01:18.690Z,8780.00
2019-05-22T09:02:18.589Z,8116.00
2019-05-22T09:03:18.492Z,8448.00
2019-05-22T09:04:18.394Z,9100.00
2019-05-22T09:05:21.167Z,9552.00
2019-05-22T09:06:18.223Z,7560.00
2019-05-22T09:07:18.174Z,9840.00
2019-05-22T09:08:17.997Z,9048.00
2019-05-22T09:09:17.893Z,10080.00
2019-05-22T09:10:17.793Z,9712.00
2019-05-22T09:11:17.694Z,11056.00
2019-05-22T09:12:17.594Z,10764.00
2019-05-22T09:13:17.506Z,10264.00
2019-05-22T09:14:17.399Z,11852.00
2019-05-22T09:15:17.328Z,11120.00
2019-05-22T09:16:17.195Z,8820.00
2019-05-22T09:17:17.096Z,9456.00
2019-05-22T09:18:16.997Z,8396.00
2019-05-22T09:19:16.907Z,9012.00
2019-05-22T09:20:16.798Z,10816.00
2019-05-22T09:21:16.714Z,10064.00
2019-05-22T09:22:16.607Z,7884.00
2019-05-22T09:23:16.505Z,8464.00
2019-05-22T09:24:16.399Z,8296.00
2019-05-22T09:25:16.689Z,8260.00
2019-05-22T09:26:16.200Z,8540.00
2019-05-22T09:27:16.135Z,10504.00
2019-05-22T09:28:16.002Z,10536.00
2019-05-22T09:29:15.904Z,10696.00
2019-05-22T09:30:15.803Z,9856.00
2019-05-22T09:31:15.709Z,11708.00
2019-05-22T09:32:15.604Z,11772.00
2019-05-22T09:33:15.505Z,11816.00
2019-05-22T09:34:15.408Z,13336.00
2019-05-22T09:35:15.359Z,12560.00
2019-05-22T09:36:15.215Z,13964.00
2019-05-22T09:37:15.112Z,12340.00
2019-05-22T09:38:15.014Z,11944.00
2019-05-22T09:39:14.912Z,11328.00
2019-05-22T09:40:14.813Z,12456.00
2019-05-22T09:41:14.713Z,15180.00
2019-05-22T09:42:14.620Z,11832.00
2019-05-22T09:43:14.516Z,9548.00
2019-05-22T09:44:15.437Z,9504.00
2019-05-22T09:45:14.324Z,11260.00
2019-05-22T09:46:14.217Z,9484.00
2019-05-22T09:47:14.119Z,9204.00
2019-05-22T09:48:14.019Z,11988.00
2019-05-22T09:49:13.922Z,13504.00
2019-05-22T09:50:13.823Z,11016.00
2019-05-22T09:51:13.724Z,10472.00
2019-05-22T09:52:13.625Z,10772.00
2019-05-22T09:53:13.530Z,11820.00
2019-05-22T09:54:13.425Z,10852.00
2019-05-22T09:55:13.351Z,10828.00
2019-05-22T09:56:13.285Z,11860.00
2019-05-22T09:57:13.130Z,12316.00
2019-05-22T09:58:13.030Z,11724.00
2019-05-22T09:59:12.934Z,13172.00
2019-05-22T10:00:12.835Z,13492.00
2019-05-22T10:01:12.735Z,12268.00
2019-05-22T10:02:12.639Z,11204.00
2019-05-22T10:03:12.540Z,10948.00
2019-05-22T10:04:12.440Z,11264.00
2019-05-22T10:05:12.352Z,10820.00
2019-05-22T10:06:12.241Z,11200.00
2019-05-22T10:07:12.143Z,10888.00
2019-05-22T10:08:12.046Z,10428.00
2019-05-22T10:09:11.946Z,9936.00
2019-05-22T10:10:11.849Z,9492.00
2019-05-22T10:11:11.751Z,10652.00
2019-05-22T10:12:11.649Z,10000.00
2019-05-22T10:13:11.552Z,10988.00
2019-05-22T10:14:11.452Z,10820.00
2019-05-22T10:15:11.352Z,9628.00
2019-05-22T10:16:11.309Z,10504.00
2019-05-22T10:17:11.168Z,10756.00
2019-05-22T10:18:11.088Z,11044.00
2019-05-22T10:19:10.971Z,10360.00
2019-05-22T10:20:10.858Z,10656.00
2019-05-22T10:21:10.761Z,10852.00
2019-05-22T10:22:10.701Z,11720.00
2019-05-22T10:23:15.427Z,10920.00
2019-05-22T10:24:10.465Z,10384.00
2019-05-22T10:25:15.822Z,9832.00
2019-05-22T10:26:10.271Z,8756.00
2019-05-22T10:27:10.171Z,9052.00
2019-05-22T10:28:10.073Z,9224.00
2019-05-22T10:29:09.974Z,8540.00
2019-05-22T10:30:09.877Z,9228.00
2019-05-22T10:31:10.364Z,10432.00
2019-05-22T10:32:09.675Z,11068.00
2019-05-22T10:33:09.579Z,12204.00
2019-05-22T10:34:09.485Z,11564.00
2019-05-22T10:35:09.379Z,9964.00
2019-05-22T10:36:09.289Z,13188.00
2019-05-22T10:37:09.222Z,10224.00
2019-05-22T10:38:09.085Z,11080.00
2019-05-22T10:39:08.985Z,13724.00
2019-05-22T10:40:08.884Z,11632.00
2019-05-22T10:41:08.792Z,11168.00
2019-05-22T10:42:08.690Z,11016.00
2019-05-22T10:43:08.592Z,11756.00
2019-05-22T10:44:08.491Z,9872.00
2019-05-22T10:45:08.394Z,9480.00
2019-05-22T10:46:08.463Z,8308.00
2019-05-22T10:47:08.208Z,9188.00
2019-05-22T10:48:08.101Z,8836.00
2019-05-22T10:49:07.996Z,8360.00
2019-05-22T10:50:07.894Z,9808.00
2019-05-22T10:51:07.806Z,9360.00
2019-05-22T10:52:07.700Z,8476.00
2019-05-22T10:53:07.600Z,9348.00
2019-05-22T10:54:07.507Z,9188.00
2019-05-22T10:55:07.411Z,8668.00
2019-05-22T10:56:07.325Z,8960.00
2019-05-22T10:57:07.258Z,8176.00
2019-05-22T10:58:07.124Z,8380.00
2019-05-22T10:59:07.009Z,7020.00
2019-05-22T11:00:06.915Z,7712.00
2019-05-22T11:01:06.813Z,8000.00
2019-05-22T11:02:06.718Z,7264.00
2019-05-22T11:03:06.614Z,8052.00
2019-05-22T11:04:06.514Z,6812.00
2019-05-22T11:05:06.421Z,7124.00
2019-05-22T11:06:07.838Z,7820.00
2019-05-22T11:07:06.216Z,8240.00
2019-05-22T11:08:06.118Z,6420.00
2019-05-22T11:09:06.021Z,5836.00
2019-05-22T11:10:05.922Z,6068.00
2019-05-22T11:11:05.821Z,6800.00
2019-05-22T11:12:05.730Z,6084.00
2019-05-22T11:13:05.656Z,7096.00
2019-05-22T11:14:09.123Z,6800.00
2019-05-22T11:15:05.424Z,7460.00
2019-05-22T11:16:05.336Z,8400.00
2019-05-22T11:17:05.261Z,7808.00
2019-05-22T11:18:05.186Z,9020.00
2019-05-22T11:19:05.027Z,8552.00
2019-05-22T11:20:04.930Z,8464.00
2019-05-22T11:21:04.831Z,9636.00
2019-05-22T11:22:04.741Z,8500.00
2019-05-22T11:23:04.630Z,7812.00
2019-05-22T11:24:04.533Z,7380.00
2019-05-22T11:25:04.434Z,7948.00
2019-05-22T11:26:04.333Z,7916.00
2019-05-22T11:27:04.235Z,8124.00
2019-05-22T11:28:04.140Z,7936.00
2019-05-22T11:29:04.038Z,7940.00
2019-05-22T11:30:03.938Z,7460.00
2019-05-22T11:31:03.846Z,8252.00
2019-05-22T11:32:03.763Z,8200.00
2019-05-22T11:33:03.640Z,7716.00
2019-05-22T11:34:03.544Z,8748.00
2019-05-22T11:35:03.442Z,7868.00
2019-05-22T11:36:03.340Z,8596.00
2019-05-22T11:37:03.248Z,8324.00
2019-05-22T11:38:03.247Z,9432.00
2019-05-22T11:39:03.048Z,9572.00
2019-05-22T11:40:02.963Z,8776.00
2019-05-22T11:41:02.906Z,7908.00
2019-05-22T11:42:02.751Z,9256.00
2019-05-22T11:43:02.651Z,9468.00
2019-05-22T11:44:02.557Z,8916.00
2019-05-22T11:45:02.452Z,9564.00
2019-05-22T11:46:02.351Z,8860.00
2019-05-22T11:47:02.260Z,8940.00
2019-05-22T11:48:02.156Z,8576.00
2019-05-22T11:49:02.055Z,7864.00
2019-05-22T11:50:02.074Z,8080.00
2019-05-22T11:51:01.856Z,8236.00
2019-05-22T11:52:01.757Z,8488.00
2019-05-22T11:53:01.655Z,6912.00
2019-05-22T11:54:09.423Z,6632.00
2019-05-22T11:55:01.457Z,7368.00
2019-05-22T11:56:01.360Z,7564.00
2019-05-22T11:57:01.259Z,7304.00
2019-05-22T11:58:01.195Z,7956.00
2019-05-22T11:59:01.128Z,7532.00
2019-05-22T12:00:00.997Z,7376.00
2019-05-22T12:01:00.861Z,6488.00
2019-05-22T12:02:00.764Z,6004.00
2019-05-22T12:03:00.667Z,6012.00
2019-05-22T12:04:00.581Z,6004.00
2019-05-22T12:05:00.463Z,5900.00
2019-05-22T12:06:00.364Z,5624.00
2019-05-22T12:07:00.265Z,5712.00
2019-05-22T12:08:00.168Z,5936.00
2019-05-22T12:09:00.081Z,5960.00
2019-05-22T12:09:59.966Z,5312.00
2019-05-22T12:10:59.889Z,5736.00
2019-05-22T12:11:59.768Z,6724.00
2019-05-22T12:12:59.671Z,5520.00
2019-05-22T12:13:59.572Z,5972.00
2019-05-22T12:14:59.473Z,5544.00
2019-05-22T12:15:59.390Z,5332.00
2019-05-22T12:16:59.273Z,5124.00
2019-05-22T12:17:59.172Z,4580.00
2019-05-22T12:18:59.274Z,4412.00
2019-05-22T12:19:58.991Z,4696.00
2019-05-22T12:20:58.891Z,4232.00
2019-05-22T12:21:58.778Z,4752.00
2019-05-22T12:22:58.687Z,4852.00